Airfield :
LOGIN :

Register | Disclaimer

   EN    FR    IT 

 










Legend :    VFR   Marginal VFR   IFR   Intensive IFR   Very Intensive IFR
Visi :
Ceiling :
>= 8 km
>= 3000ft
5 to 8 km
1000 to 3000 ft
1500m to 5 km
500 to 1000 ft
800 to 1500m
200 to 500 ft
< 800m
< 200 ft
Symbols :   Thunderstorms  Fog  Heavy snow  Heavy precipitations  Wind > 20 kt
SIGMETs :     Misc.  Thunderstorms  Icing  Turbulence  Mountain Waves  Volcanic Ashes







- Airport Elevation : 412 ft
- IATA code : KGS


LGKO - Ippokratis

CURRENT METAR :
  • 161420Z 31014KT 280V340 9999 FEW010 23/15 Q1016

EXPIRED METARs :
  • 161350Z 31015KT 290V350 9999 FEW015 23/16 Q1016
  • 161320Z 31017KT 280V340 9999 FEW015 23/16 Q1016
  • 161250Z 31016KT 270V360 9999 FEW015 24/16 Q1016
  • 161220Z 31015KT 270V360 9999 FEW015 24/15 Q1016
  • 161150Z 31012KT 260V350 9999 FEW015 24/17 Q1016

TAF TAF LGKO
Valid from the 16 at 12:00 until the 17 at 12:00 UTC


161100Z 1612/1712 33015KT 9999 FEW015
No reported NOTAMs for that airfield.



MET'MAP, your aeronautical weather chart ! - Copyright ORBIFLY December 2007 - Disclaimer

ORBIFLY MET'MAP TEAM :

Programming & Development : Alexandra Zaïnal
Concept & Development : Baudouin d'Aumeries
Co-Development & Prog : Marc-Olivier Méhu
Technical & hardware support : Manuel Goepfert

Contact : metmap@orbifly.com




SOURCES & CREDITS :

   NOAA